Terminal Aerodrome Forecast
Issued by NWS

Home | Current Version | Previous Version | Text Only | Print | Product List | Glossary On
Versions: 1 2 3 4 5 6 7 8 9 10 11 12 13 14 15 16
000
FTUS45 KPSR 301700
TAFBLH
TAF
KBLH 301722Z 3018/3118 35006KT P6SM SCT060 BKN080
      TEMPO 3018/3020 4SM -SHRA BKN060
     FM302000 34006KT 6SM BR BKN060=

USA.gov is the U.S. government's official web portal to all federal, state and local government web resources and services.